createdAt,value
2023-05-01T00:01:32.683Z,10.55
2023-05-01T00:03:59.619Z,8.73
2023-05-01T00:06:26.420Z,6.72
2023-05-01T00:08:53.180Z,11.50
2023-05-01T00:11:19.858Z,8.70
2023-05-01T00:13:46.725Z,8.00
2023-05-01T00:16:13.849Z,7.22
2023-05-01T00:18:40.597Z,10.85
2023-05-01T00:21:07.175Z,7.93
2023-05-01T00:23:33.881Z,9.75
2023-05-01T00:26:00.601Z,5.65
2023-05-01T00:28:27.355Z,10.38
2023-05-01T00:30:54.052Z,7.78
2023-05-01T00:33:21.001Z,8.10
2023-05-01T00:35:47.804Z,9.25
2023-05-01T00:38:14.419Z,9.23
2023-05-01T00:40:45.002Z,8.85
2023-05-01T00:43:12.858Z,7.72
2023-05-01T00:45:45.510Z,8.13
2023-05-01T00:48:12.435Z,8.80
2023-05-01T00:50:39.434Z,11.27
2023-05-01T00:53:06.609Z,6.88
2023-05-01T00:55:33.812Z,7.53
2023-05-01T00:58:00.817Z,10.90
2023-05-01T01:00:27.593Z,7.07
2023-05-01T01:02:54.258Z,9.07
2023-05-01T01:05:22.179Z,7.05
2023-05-01T01:08:11.442Z,6.25
2023-05-01T01:10:53.345Z,5.88
2023-05-01T01:13:58.964Z,8.75
2023-05-01T01:16:34.044Z,8.25
2023-05-01T01:19:17.107Z,10.13
2023-05-01T01:21:47.409Z,8.20
2023-05-01T01:24:32.314Z,6.63
2023-05-01T01:27:20.959Z,8.40
2023-05-01T01:29:47.497Z,8.07
2023-05-01T01:32:53.696Z,6.88
2023-05-01T01:35:21.394Z,6.78
2023-05-01T01:38:02.345Z,9.00
2023-05-01T01:40:34.242Z,7.97
2023-05-01T01:43:07.695Z,8.77
2023-05-01T01:45:40.197Z,5.78
2023-05-01T01:48:09.918Z,8.52
2023-05-01T01:50:38.229Z,10.35
2023-05-01T01:53:07.064Z,8.98
2023-05-01T01:55:35.109Z,7.60
2023-05-01T01:58:03.317Z,5.85
2023-05-01T02:00:30.844Z,7.68
2023-05-01T02:02:59.282Z,6.95
2023-05-01T02:05:26.461Z,7.90
2023-05-01T02:07:55.607Z,8.73
2023-05-01T02:10:23.278Z,8.00
2023-05-01T02:12:51.870Z,12.80
2023-05-01T02:15:19.324Z,8.35
2023-05-01T02:17:46.210Z,6.75
2023-05-01T02:20:13.779Z,9.65
2023-05-01T02:22:41.113Z,7.10
2023-05-01T02:25:12.959Z,8.02
2023-05-01T02:27:44.105Z,8.20
2023-05-01T02:30:11.795Z,6.35
2023-05-01T02:32:38.557Z,7.20
2023-05-01T02:35:06.143Z,7.15
2023-05-01T02:37:33.217Z,9.48
2023-05-01T02:40:00.002Z,10.13
2023-05-01T02:42:28.185Z,6.22
2023-05-01T02:45:01.579Z,8.82
2023-05-01T02:47:30.455Z,10.43
2023-05-01T02:49:58.296Z,12.35
2023-05-01T02:52:26.725Z,10.57
2023-05-01T02:55:05.926Z,8.82
2023-05-01T02:57:33.304Z,10.50
2023-05-01T02:59:59.968Z,8.95
2023-05-01T03:02:26.864Z,10.90
2023-05-01T03:04:53.548Z,9.75
2023-05-01T03:07:21.294Z,10.85
2023-05-01T03:09:47.959Z,8.73
2023-05-01T03:12:14.564Z,7.38
2023-05-01T03:14:41.319Z,14.10
2023-05-01T03:17:08.096Z,8.27
2023-05-01T03:19:34.782Z,7.95
2023-05-01T03:22:01.364Z,10.93
2023-05-01T03:24:28.274Z,9.30
2023-05-01T03:26:55.130Z,8.63
2023-05-01T03:29:21.764Z,9.98
2023-05-01T03:31:48.638Z,8.25
2023-05-01T03:34:15.442Z,9.95
2023-05-01T03:36:42.269Z,8.80
2023-05-01T03:39:09.039Z,9.48
2023-05-01T03:41:35.953Z,11.32
2023-05-01T03:44:11.096Z,11.13
2023-05-01T03:46:41.365Z,11.02
2023-05-01T03:49:11.480Z,9.93
2023-05-01T03:51:44.889Z,10.25
2023-05-01T03:54:11.623Z,13.57
2023-05-01T03:56:57.135Z,8.50
2023-05-01T03:59:24.066Z,11.85
2023-05-01T04:01:50.966Z,13.93
2023-05-01T04:04:17.730Z,11.13
2023-05-01T04:06:49.940Z,11.35
2023-05-01T04:09:16.814Z,11.75
2023-05-01T04:11:43.602Z,8.60
2023-05-01T04:14:10.274Z,8.85
2023-05-01T04:16:37.322Z,12.05
2023-05-01T04:19:04.197Z,9.88
2023-05-01T04:21:34.008Z,12.48
2023-05-01T04:24:00.619Z,15.73
2023-05-01T04:26:29.082Z,10.57
2023-05-01T04:28:55.783Z,9.95
2023-05-01T04:31:25.080Z,12.20
2023-05-01T04:33:51.914Z,13.80
2023-05-01T04:36:19.151Z,12.15
2023-05-01T04:38:45.823Z,14.73
2023-05-01T04:41:13.074Z,11.20
2023-05-01T04:43:39.839Z,12.18
2023-05-01T04:46:07.735Z,12.88
2023-05-01T04:48:34.379Z,11.98
2023-05-01T04:51:00.974Z,11.23
2023-05-01T04:53:30.946Z,8.65
2023-05-01T04:55:58.510Z,15.55
2023-05-01T04:58:25.395Z,9.35
2023-05-01T05:00:58.410Z,11.67
2023-05-01T05:03:25.212Z,15.57
2023-05-01T05:05:52.137Z,13.60
2023-05-01T05:08:19.463Z,14.40
2023-05-01T05:10:50.181Z,12.25
2023-05-01T05:13:24.570Z,10.05
2023-05-01T05:15:59.325Z,11.05
2023-05-01T05:18:26.421Z,11.27
2023-05-01T05:20:53.071Z,16.27
2023-05-01T05:23:19.740Z,10.63
2023-05-01T05:25:46.475Z,13.48
2023-05-01T05:28:13.234Z,13.30
2023-05-01T05:30:41.585Z,12.55
2023-05-01T05:33:13.485Z,9.93
2023-05-01T05:35:40.217Z,9.27
2023-05-01T05:38:07.036Z,15.65
2023-05-01T05:40:36.923Z,14.95
2023-05-01T05:43:03.629Z,11.80
2023-05-01T05:45:34.503Z,15.63
2023-05-01T05:48:01.697Z,15.88
2023-05-01T05:50:31.034Z,12.52
2023-05-01T05:52:58.347Z,12.57
2023-05-01T05:55:25.751Z,18.13
2023-05-01T05:58:01.667Z,11.98
2023-05-01T06:00:29.108Z,10.95
2023-05-01T06:02:58.075Z,11.10
2023-05-01T06:05:27.772Z,12.38
2023-05-01T06:07:54.962Z,12.05
2023-05-01T06:10:21.611Z,11.65
2023-05-01T06:12:49.224Z,12.90
2023-05-01T06:15:20.539Z,13.40
2023-05-01T06:17:53.124Z,14.85
2023-05-01T06:20:19.928Z,11.20
2023-05-01T06:22:46.919Z,12.60
2023-05-01T06:25:21.651Z,10.55
2023-05-01T06:27:49.305Z,11.57
2023-05-01T06:30:19.786Z,9.60
2023-05-01T06:32:46.977Z,9.60
2023-05-01T06:35:15.537Z,11.80
2023-05-01T06:37:42.283Z,9.60
2023-05-01T06:40:12.080Z,11.57
2023-05-01T06:42:39.832Z,11.93
2023-05-01T06:45:07.561Z,20.58
2023-05-01T06:47:35.010Z,11.02
2023-05-01T06:50:04.426Z,9.90
2023-05-01T06:52:33.702Z,10.07
2023-05-01T06:55:00.428Z,10.80
2023-05-01T06:57:27.314Z,13.43
2023-05-01T06:59:54.383Z,9.93
2023-05-01T07:02:21.332Z,9.80
2023-05-01T07:04:48.092Z,8.88
2023-05-01T07:07:14.889Z,8.85
2023-05-01T07:09:41.641Z,12.95
2023-05-01T07:12:08.713Z,10.98
2023-05-01T07:14:35.958Z,12.15
2023-05-01T07:17:03.390Z,10.98
2023-05-01T07:19:30.059Z,12.02
2023-05-01T07:21:56.801Z,11.20
2023-05-01T07:24:23.484Z,13.50
2023-05-01T07:26:50.153Z,9.48
2023-05-01T07:29:16.811Z,13.13
2023-05-01T07:31:44.251Z,10.30
2023-05-01T07:34:11.923Z,10.88
2023-05-01T07:36:38.715Z,13.85
2023-05-01T07:39:06.667Z,9.70
2023-05-01T07:41:33.335Z,9.68
2023-05-01T07:44:00.854Z,10.65
2023-05-01T07:46:27.669Z,8.75
2023-05-01T07:48:54.560Z,10.77
2023-05-01T07:51:21.697Z,13.20
2023-05-01T07:53:49.369Z,10.68
2023-05-01T07:56:16.528Z,9.68
2023-05-01T07:58:43.986Z,9.48
2023-05-01T08:01:10.714Z,9.23
2023-05-01T08:03:37.826Z,12.68
2023-05-01T08:06:05.680Z,12.00
2023-05-01T08:08:32.329Z,13.90
2023-05-01T08:10:59.591Z,9.32
2023-05-01T08:13:26.273Z,9.63
2023-05-01T08:15:53.119Z,12.05
2023-05-01T08:18:21.102Z,10.45
2023-05-01T08:20:48.349Z,10.20
2023-05-01T08:23:18.629Z,7.55
2023-05-01T08:25:46.995Z,11.18
2023-05-01T08:28:14.972Z,13.80
2023-05-01T08:30:41.711Z,12.65
2023-05-01T08:33:08.347Z,12.93
2023-05-01T08:35:35.113Z,10.32
2023-05-01T08:38:02.097Z,12.48
2023-05-01T08:40:31.915Z,12.27
2023-05-01T08:43:00.727Z,13.68
2023-05-01T08:45:27.812Z,13.43
2023-05-01T08:47:55.422Z,9.95
2023-05-01T08:50:22.848Z,11.55
2023-05-01T08:52:51.660Z,12.23
2023-05-01T08:55:19.151Z,10.13
2023-05-01T08:57:46.865Z,14.02
2023-05-01T09:00:21.576Z,10.05
2023-05-01T09:02:50.021Z,8.73
2023-05-01T09:05:18.178Z,12.95
2023-05-01T09:07:46.576Z,11.43
2023-05-01T09:10:14.336Z,10.05
2023-05-01T09:12:42.253Z,12.32
2023-05-01T09:15:09.807Z,14.30
2023-05-01T09:17:37.024Z,9.93
2023-05-01T09:20:06.363Z,11.93
2023-05-01T09:22:34.298Z,11.13
2023-05-01T09:25:02.152Z,16.42
2023-05-01T09:27:29.754Z,9.73
2023-05-01T09:29:56.641Z,10.00
2023-05-01T09:32:26.067Z,9.38
2023-05-01T09:34:53.598Z,10.45
2023-05-01T09:37:32.721Z,13.40
2023-05-01T09:40:10.028Z,10.43
2023-05-01T09:42:41.445Z,9.77
2023-05-01T09:45:15.156Z,10.55
2023-05-01T09:47:46.039Z,14.70
2023-05-01T09:50:29.604Z,8.75
2023-05-01T09:52:56.434Z,7.80
2023-05-01T09:55:25.625Z,8.65
2023-05-01T09:57:53.077Z,8.77
2023-05-01T10:00:22.090Z,9.10
2023-05-01T10:02:50.009Z,7.35
2023-05-01T10:05:17.722Z,9.43
2023-05-01T10:08:05.837Z,6.93
2023-05-01T10:10:32.505Z,11.07
2023-05-01T10:13:14.286Z,6.65
2023-05-01T10:15:40.984Z,4.75
2023-05-01T10:18:10.254Z,7.97
2023-05-01T10:20:36.988Z,5.30
2023-05-01T10:23:03.729Z,5.68
2023-05-01T10:25:31.914Z,5.28
2023-05-01T10:27:58.737Z,11.52
2023-05-01T10:30:29.933Z,5.60
2023-05-01T10:32:58.538Z,6.60
2023-05-01T10:35:28.892Z,6.95
2023-05-01T10:38:00.928Z,5.47
2023-05-01T10:40:39.825Z,7.80
2023-05-01T10:43:26.095Z,8.68
2023-05-01T10:45:53.118Z,6.18
2023-05-01T10:48:43.942Z,5.25
2023-05-01T10:51:14.386Z,7.20
2023-05-01T10:53:48.352Z,6.35
2023-05-01T10:56:29.957Z,6.60
2023-05-01T10:58:59.173Z,8.38
2023-05-01T11:01:33.805Z,8.15
2023-05-01T11:04:04.406Z,6.78
2023-05-01T11:06:32.157Z,6.05
2023-05-01T11:08:59.620Z,4.00
2023-05-01T11:11:26.898Z,2.67
2023-05-01T11:14:08.609Z,4.63
2023-05-01T11:16:38.386Z,5.13
2023-05-01T11:19:09.729Z,10.82
2023-05-01T11:21:38.864Z,10.35
2023-05-01T11:24:06.686Z,5.53
2023-05-01T11:26:37.811Z,4.30
2023-05-01T11:29:05.742Z,19.58
2023-05-01T11:31:32.773Z,6.90
2023-05-01T11:34:00.333Z,4.88
2023-05-01T11:36:28.273Z,5.07
2023-05-01T11:38:59.615Z,5.10
2023-05-01T11:41:27.175Z,5.78
2023-05-01T11:43:56.336Z,7.63
2023-05-01T11:46:30.200Z,4.10
2023-05-01T11:48:58.817Z,3.20
2023-05-01T11:51:26.783Z,3.00
2023-05-01T11:54:07.758Z,2.25
2023-05-01T11:56:35.538Z,4.22
2023-05-01T11:59:16.740Z,3.45
2023-05-01T12:01:47.047Z,4.55
2023-05-01T12:04:23.926Z,5.60
2023-05-01T12:06:51.298Z,2.50
2023-05-01T12:09:22.963Z,4.88
2023-05-01T12:11:52.795Z,5.90
2023-05-01T12:14:21.563Z,4.55
2023-05-01T12:16:48.573Z,4.53
2023-05-01T12:19:15.795Z,3.33
2023-05-01T12:21:42.556Z,4.00
2023-05-01T12:24:10.863Z,7.15
2023-05-01T12:26:37.851Z,6.05
2023-05-01T12:29:06.359Z,6.22
2023-05-01T12:31:33.406Z,2.13
2023-05-01T12:34:07.541Z,4.07
2023-05-01T12:36:35.871Z,4.85
2023-05-01T12:39:04.515Z,3.85
2023-05-01T12:41:45.787Z,3.63
2023-05-01T12:44:19.313Z,2.67
2023-05-01T12:46:52.672Z,4.80
2023-05-01T12:49:20.551Z,4.38
2023-05-01T12:51:48.874Z,3.65
2023-05-01T12:54:29.422Z,4.13
2023-05-01T12:57:06.581Z,5.57
2023-05-01T12:59:33.420Z,4.20
2023-05-01T13:02:01.080Z,3.42
2023-05-01T13:04:28.276Z,2.45
2023-05-01T13:06:56.126Z,1.45
2023-05-01T13:09:23.837Z,4.50
2023-05-01T13:12:05.116Z,6.50
2023-05-01T13:14:39.065Z,2.47
2023-05-01T13:17:14.195Z,4.95
2023-05-01T13:19:41.397Z,3.33
2023-05-01T13:22:08.078Z,4.40
2023-05-01T13:24:42.744Z,5.00
2023-05-01T13:27:09.609Z,2.17
2023-05-01T13:29:36.376Z,2.55
2023-05-01T13:32:06.794Z,3.10
2023-05-01T13:34:34.579Z,3.33
2023-05-01T13:37:02.242Z,4.38
2023-05-01T13:39:29.366Z,5.75
2023-05-01T13:41:56.233Z,3.05
2023-05-01T13:44:23.011Z,10.10
2023-05-01T13:46:49.853Z,3.70
2023-05-01T13:49:18.077Z,4.90
2023-05-01T13:51:45.220Z,4.88
2023-05-01T13:54:12.490Z,4.63
2023-05-01T13:56:40.667Z,4.10
2023-05-01T13:59:08.377Z,3.15
2023-05-01T14:01:43.009Z,5.32
2023-05-01T14:04:11.005Z,2.80
2023-05-01T14:06:42.527Z,4.57
2023-05-01T14:09:09.433Z,4.30
2023-05-01T14:11:45.224Z,2.83
2023-05-01T14:14:12.269Z,3.55
2023-05-01T14:16:40.977Z,5.95
2023-05-01T14:19:07.633Z,3.50
2023-05-01T14:21:39.162Z,2.03
2023-05-01T14:24:07.570Z,5.15
2023-05-01T14:26:35.844Z,2.70
2023-05-01T14:29:03.832Z,2.85
2023-05-01T14:31:31.123Z,3.88
2023-05-01T14:33:59.815Z,19.73
2023-05-01T14:36:31.679Z,2.92
2023-05-01T14:38:59.780Z,3.33
2023-05-01T14:41:26.799Z,9.13
2023-05-01T14:43:53.771Z,2.13
2023-05-01T14:46:31.376Z,2.78
2023-05-01T14:48:58.835Z,11.07
2023-05-01T14:51:25.838Z,5.03
2023-05-01T14:53:52.461Z,5.13
2023-05-01T14:56:19.167Z,6.25
2023-05-01T14:58:46.890Z,7.75
2023-05-01T15:01:14.332Z,6.63
2023-05-01T15:03:41.629Z,12.50
2023-05-01T15:06:08.894Z,4.95
2023-05-01T15:08:36.103Z,10.13
2023-05-01T15:11:02.729Z,10.95
2023-05-01T15:13:31.696Z,9.40
2023-05-01T15:15:58.590Z,8.75
2023-05-01T15:18:25.428Z,6.68
2023-05-01T15:20:52.119Z,4.88
2023-05-01T15:23:18.760Z,6.90
2023-05-01T15:25:45.484Z,6.05
2023-05-01T15:28:13.493Z,6.30
2023-05-01T15:30:44.438Z,8.38
2023-05-01T15:33:11.412Z,5.97
2023-05-01T15:35:38.578Z,5.35
2023-05-01T15:38:05.643Z,6.32
2023-05-01T15:40:33.485Z,7.22
2023-05-01T15:43:01.093Z,4.65
2023-05-01T15:45:27.803Z,6.07
2023-05-01T15:47:54.643Z,8.85
2023-05-01T15:50:22.188Z,7.18
2023-05-01T15:52:48.874Z,5.70
2023-05-01T15:55:16.039Z,6.35
2023-05-01T15:57:46.319Z,7.45
2023-05-01T16:00:14.531Z,7.20
2023-05-01T16:02:42.658Z,8.27
2023-05-01T16:05:09.729Z,6.05
2023-05-01T16:07:36.551Z,5.28
2023-05-01T16:10:03.881Z,6.07
2023-05-01T16:12:31.145Z,7.10
2023-05-01T16:14:57.871Z,6.25
2023-05-01T16:17:24.573Z,9.52
2023-05-01T16:19:52.742Z,6.53
2023-05-01T16:22:20.439Z,6.97
2023-05-01T16:24:47.134Z,9.38
2023-05-01T16:27:13.926Z,7.13
2023-05-01T16:29:40.939Z,9.02
2023-05-01T16:32:11.315Z,6.50
2023-05-01T16:34:40.028Z,7.00
2023-05-01T16:37:06.830Z,10.57
2023-05-01T16:39:37.022Z,6.40
2023-05-01T16:42:03.923Z,4.93
2023-05-01T16:44:30.528Z,3.95
2023-05-01T16:47:03.350Z,7.30
2023-05-01T16:49:30.097Z,7.85
2023-05-01T16:51:58.262Z,5.25
2023-05-01T16:54:26.937Z,9.20
2023-05-01T16:56:53.540Z,7.10
2023-05-01T16:59:20.123Z,6.82
2023-05-01T17:01:46.985Z,8.45
2023-05-01T17:04:15.097Z,8.65
2023-05-01T17:06:41.916Z,9.55
2023-05-01T17:09:08.947Z,11.85
2023-05-01T17:11:35.829Z,16.45
2023-05-01T17:14:02.924Z,9.88
2023-05-01T17:16:30.189Z,13.07
2023-05-01T17:18:56.859Z,12.75
2023-05-01T17:21:24.720Z,9.88
2023-05-01T17:23:51.387Z,8.82
2023-05-01T17:26:18.130Z,7.80
2023-05-01T17:28:47.343Z,11.23
2023-05-01T17:31:15.826Z,13.27
2023-05-01T17:33:44.012Z,14.18
2023-05-01T17:36:10.664Z,14.52
2023-05-01T17:38:37.475Z,10.48
2023-05-01T17:41:04.571Z,17.40
2023-05-01T17:43:31.345Z,14.00
2023-05-01T17:45:58.073Z,14.15
2023-05-01T17:48:24.739Z,15.02
2023-05-01T17:50:51.358Z,14.43
2023-05-01T17:53:18.066Z,14.18
2023-05-01T17:55:45.097Z,16.02
2023-05-01T17:58:11.965Z,15.90
2023-05-01T18:00:38.729Z,15.02
2023-05-01T18:03:06.095Z,13.77
2023-05-01T18:05:32.977Z,17.23
2023-05-01T18:07:59.610Z,16.48
2023-05-01T18:10:31.065Z,22.73
2023-05-01T18:12:58.255Z,23.40
2023-05-01T18:15:25.281Z,15.70
2023-05-01T18:17:51.995Z,18.70
2023-05-01T18:20:19.528Z,16.80
2023-05-01T18:22:46.340Z,18.80
2023-05-01T18:25:14.027Z,14.23
2023-05-01T18:27:41.739Z,18.52
2023-05-01T18:30:09.365Z,28.10
2023-05-01T18:32:46.792Z,19.10
2023-05-01T18:35:15.349Z,16.40
2023-05-01T18:37:42.773Z,17.23
2023-05-01T18:40:09.972Z,18.83
2023-05-01T18:42:36.690Z,17.27
2023-05-01T18:45:04.071Z,17.92
2023-05-01T18:47:32.496Z,20.45
2023-05-01T18:49:59.735Z,20.63
2023-05-01T18:52:26.668Z,18.88
2023-05-01T18:54:53.284Z,17.00
2023-05-01T18:57:19.876Z,15.73
2023-05-01T18:59:46.614Z,15.73
2023-05-01T19:02:13.326Z,18.15
2023-05-01T19:04:56.847Z,18.10
2023-05-01T19:07:25.913Z,20.70
2023-05-01T19:09:52.692Z,18.27
2023-05-01T19:12:19.337Z,19.40
2023-05-01T19:14:45.969Z,23.58
2023-05-01T19:17:12.621Z,31.13
2023-05-01T19:19:39.342Z,37.17
2023-05-01T19:22:06.310Z,32.22
2023-05-01T19:24:33.021Z,37.15
2023-05-01T19:26:59.684Z,34.25
2023-05-01T19:29:26.349Z,35.08
2023-05-01T19:31:53.124Z,34.70
2023-05-01T19:34:20.750Z,34.38
2023-05-01T19:36:47.427Z,36.10
2023-05-01T19:39:14.066Z,36.67
2023-05-01T19:41:40.770Z,34.17
2023-05-01T19:44:07.979Z,34.88
2023-05-01T19:46:34.611Z,33.08
2023-05-01T19:49:01.252Z,32.78
2023-05-01T19:51:28.295Z,32.25
2023-05-01T19:53:54.971Z,33.40
2023-05-01T19:56:21.586Z,33.30
2023-05-01T19:58:48.171Z,30.77
2023-05-01T20:01:15.023Z,31.65
2023-05-01T20:03:41.816Z,36.88
2023-05-01T20:06:09.117Z,34.70
2023-05-01T20:08:35.884Z,32.10
2023-05-01T20:11:02.576Z,32.03
2023-05-01T20:13:29.717Z,29.30
2023-05-01T20:15:56.656Z,31.85
2023-05-01T20:18:23.719Z,29.15
2023-05-01T20:20:50.502Z,31.13
2023-05-01T20:23:19.473Z,26.83
2023-05-01T20:25:50.139Z,31.63
2023-05-01T20:28:16.844Z,25.98
2023-05-01T20:30:45.478Z,26.15
2023-05-01T20:33:12.230Z,25.00
2023-05-01T20:35:39.465Z,31.55
2023-05-01T20:38:06.218Z,32.33
2023-05-01T20:40:33.451Z,32.47
2023-05-01T20:43:00.704Z,28.23
2023-05-01T20:45:29.164Z,28.67
2023-05-01T20:47:56.196Z,27.27
2023-05-01T20:50:23.841Z,23.30
2023-05-01T20:52:51.304Z,27.27
2023-05-01T20:55:18.375Z,24.80
2023-05-01T20:57:45.063Z,28.70
2023-05-01T21:00:11.928Z,25.35
2023-05-01T21:02:39.464Z,26.80
2023-05-01T21:05:07.597Z,25.88
2023-05-01T21:07:38.215Z,27.10
2023-05-01T21:10:11.401Z,23.95
2023-05-01T21:12:38.646Z,27.25
2023-05-01T21:15:06.159Z,26.40
2023-05-01T21:17:33.616Z,26.77
2023-05-01T21:20:01.264Z,26.60
2023-05-01T21:22:28.498Z,28.10
2023-05-01T21:24:56.814Z,29.52
2023-05-01T21:27:24.687Z,29.48
2023-05-01T21:29:59.324Z,28.83
2023-05-01T21:32:32.938Z,29.92
2023-05-01T21:35:00.355Z,32.08
2023-05-01T21:37:27.203Z,29.58
2023-05-01T21:39:53.912Z,32.17
2023-05-01T21:42:20.595Z,30.70
2023-05-01T21:44:47.218Z,31.67
2023-05-01T21:47:15.140Z,32.20
2023-05-01T21:49:41.847Z,33.35
2023-05-01T21:52:08.900Z,34.45
2023-05-01T21:54:36.440Z,34.38
2023-05-01T21:57:05.503Z,34.55
2023-05-01T21:59:36.116Z,35.70
2023-05-01T22:02:11.796Z,36.88
2023-05-01T22:04:39.173Z,33.85
2023-05-01T22:07:06.096Z,30.83
2023-05-01T22:09:33.161Z,34.75
2023-05-01T22:11:59.827Z,37.08
2023-05-01T22:14:33.513Z,34.03
2023-05-01T22:17:06.851Z,37.20
2023-05-01T22:19:33.561Z,36.95
2023-05-01T22:22:00.397Z,34.50
2023-05-01T22:24:27.041Z,32.42
2023-05-01T22:26:53.643Z,37.63
2023-05-01T22:29:20.485Z,36.78
2023-05-01T22:31:47.167Z,35.05
2023-05-01T22:34:13.968Z,34.38
2023-05-01T22:36:40.559Z,36.00
2023-05-01T22:39:07.296Z,35.33
2023-05-01T22:41:33.908Z,37.88
2023-05-01T22:44:00.577Z,37.47
2023-05-01T22:46:27.250Z,32.90
2023-05-01T22:48:55.131Z,37.40
2023-05-01T22:51:21.827Z,34.47
2023-05-01T22:53:48.452Z,34.88
2023-05-01T22:56:15.158Z,33.95
2023-05-01T22:58:42.751Z,40.00
2023-05-01T23:01:09.524Z,35.95
2023-05-01T23:03:38.660Z,33.97
2023-05-01T23:06:06.474Z,30.65
2023-05-01T23:08:35.952Z,29.20
2023-05-01T23:11:02.896Z,29.95
2023-05-01T23:13:32.125Z,32.40
2023-05-01T23:15:58.844Z,35.60
2023-05-01T23:18:30.841Z,31.85
2023-05-01T23:20:57.591Z,35.90
2023-05-01T23:23:29.202Z,30.02
2023-05-01T23:25:55.808Z,33.05
2023-05-01T23:28:24.666Z,32.25
2023-05-01T23:30:55.910Z,38.70
2023-05-01T23:33:28.077Z,31.02
2023-05-01T23:35:54.868Z,31.60
2023-05-01T23:38:21.653Z,27.67
2023-05-01T23:40:49.714Z,29.90
2023-05-01T23:43:17.195Z,32.88
2023-05-01T23:45:43.982Z,31.48
2023-05-01T23:48:10.931Z,30.85
2023-05-01T23:50:37.919Z,29.83
2023-05-01T23:53:07.522Z,28.83
2023-05-01T23:55:40.003Z,30.13
2023-05-01T23:58:06.757Z,29.63
